Time;durP1;ratioP1;P1;durP2;ratioP2;P2;SDS_P1;SDS_P2;PMS_P1;PMS_P2;Temp;Humidity;BMP_temperature;BMP_pressure;BME280_temperature;BME280_humidity;BME280_pressure;Samples;Min_cycle;Max_cycle;Signal;HPM_P1;HPM_P2
2023/10/30 00:01:32;;;;;;;4.35;1.75;;;13.30;99.90;;;;;;5084283;28;20016;-75
2023/10/30 00:03:57;;;;;;;7.35;2.05;;;13.30;99.90;;;;;;5084541;28;20035;-75
2023/10/30 00:06:23;;;;;;;4.10;1.90;;;13.30;99.90;;;;;;5085808;28;20729;-75
2023/10/30 00:08:49;;;;;;;6.28;2.17;;;13.30;99.90;;;;;;5081999;28;20036;-74
2023/10/30 00:11:15;;;;;;;1.98;1.30;;;13.30;99.90;;;;;;5083255;28;20071;-74
2023/10/30 00:13:41;;;;;;;3.92;1.35;;;13.30;99.90;;;;;;5086073;28;20032;-74
2023/10/30 00:16:10;;;;;;;3.70;1.30;;;13.30;99.90;;;;;;5084581;28;20494;-75
2023/10/30 00:18:36;;;;;;;1.92;1.20;;;13.20;99.90;;;;;;5081974;28;20054;-74
2023/10/30 00:21:01;;;;;;;2.38;1.50;;;13.20;99.90;;;;;;5087295;28;20032;-74
2023/10/30 00:23:28;;;;;;;2.17;1.02;;;13.10;99.90;;;;;;5080515;28;20039;-75
2023/10/30 00:25:55;;;;;;;3.38;1.48;;;13.10;99.90;;;;;;5084118;28;20013;-72
2023/10/30 00:28:20;;;;;;;1.60;0.82;;;13.10;99.90;;;;;;5087701;28;20019;-74
2023/10/30 00:30:46;;;;;;;2.42;1.42;;;13.00;99.90;;;;;;5081035;28;20109;-72
2023/10/30 00:33:13;;;;;;;2.08;1.40;;;13.00;99.90;;;;;;5085632;28;20047;-72
2023/10/30 00:35:39;;;;;;;3.65;1.58;;;12.90;99.90;;;;;;5085134;28;20021;-72
2023/10/30 00:38:04;;;;;;;2.70;2.00;;;12.80;99.90;;;;;;5082443;28;20031;-77
2023/10/30 00:40:30;;;;;;;2.88;1.20;;;12.80;99.90;;;;;;5083799;28;20030;-74
2023/10/30 00:42:56;;;;;;;2.15;1.50;;;12.70;99.90;;;;;;5081189;28;20028;-75
2023/10/30 00:45:22;;;;;;;3.08;1.73;;;12.70;99.90;;;;;;5084439;28;20475;-75
2023/10/30 00:47:47;;;;;;;8.27;2.10;;;12.70;99.90;;;;;;5082010;28;20026;-75
2023/10/30 00:50:13;;;;;;;2.17;1.67;;;12.60;99.90;;;;;;5083042;28;20399;-74
2023/10/30 00:52:38;;;;;;;2.30;1.50;;;12.60;99.90;;;;;;5077385;28;20164;-73
2023/10/30 00:55:04;;;;;;;2.40;1.60;;;12.60;99.90;;;;;;5083828;28;20034;-74
2023/10/30 00:57:30;;;;;;;3.25;1.77;;;12.50;99.90;;;;;;5079301;28;20034;-75
2023/10/30 00:59:56;;;;;;;2.20;1.85;;;12.50;99.90;;;;;;5078830;28;20162;-75
2023/10/30 01:02:21;;;;;;;3.67;2.00;;;12.50;99.90;;;;;;5087001;28;20073;-75
2023/10/30 01:04:47;;;;;;;3.78;2.05;;;12.50;99.90;;;;;;5083093;28;20028;-74
2023/10/30 01:07:12;;;;;;;2.72;1.45;;;12.50;99.90;;;;;;5083655;28;20039;-74
2023/10/30 01:09:38;;;;;;;2.70;1.92;;;12.50;99.90;;;;;;5080116;28;20036;-74
2023/10/30 01:12:03;;;;;;;3.00;1.60;;;12.50;99.90;;;;;;5080156;28;20024;-74
2023/10/30 01:14:29;;;;;;;3.65;1.60;;;12.50;99.90;;;;;;5081622;28;20045;-73
2023/10/30 01:16:55;;;;;;;2.65;1.58;;;12.50;99.90;;;;;;5088137;28;20028;-75
2023/10/30 01:19:20;;;;;;;2.65;1.77;;;12.40;99.90;;;;;;5084544;28;20032;-73
2023/10/30 01:21:46;;;;;;;2.33;1.58;;;12.40;99.90;;;;;;5088977;28;20495;-72
2023/10/30 01:24:11;;;;;;;2.78;1.40;;;12.40;99.90;;;;;;5083388;28;20023;-73
2023/10/30 01:26:39;;;;;;;2.55;1.80;;;12.30;99.90;;;;;;5086159;28;20020;-75
2023/10/30 01:29:04;;;;;;;3.08;1.60;;;12.30;99.90;;;;;;5083417;28;20020;-74
2023/10/30 01:31:30;;;;;;;4.90;1.30;;;12.30;99.90;;;;;;5080308;28;20390;-75
2023/10/30 01:33:56;;;;;;;4.38;1.38;;;12.30;99.90;;;;;;5077212;28;20028;-75
2023/10/30 01:36:23;;;;;;;2.83;1.55;;;12.20;99.90;;;;;;5081339;28;20483;-75
2023/10/30 01:38:49;;;;;;;2.67;1.52;;;12.20;99.90;;;;;;5083040;28;20027;-73
2023/10/30 01:41:14;;;;;;;3.38;1.38;;;12.20;99.90;;;;;;5082582;28;20023;-74
2023/10/30 01:43:40;;;;;;;2.10;1.35;;;12.20;99.90;;;;;;5075565;28;20086;-74
2023/10/30 01:46:05;;;;;;;2.63;1.45;;;12.10;99.90;;;;;;5086087;28;20023;-75
2023/10/30 01:48:33;;;;;;;2.75;1.58;;;12.20;99.90;;;;;;5083454;28;20032;-75
2023/10/30 01:51:00;;;;;;;2.15;1.52;;;12.20;99.90;;;;;;5084375;28;20434;-74
2023/10/30 01:53:27;;;;;;;2.85;1.42;;;12.20;99.90;;;;;;5075589;28;20029;-76
2023/10/30 01:55:54;;;;;;;3.65;1.70;;;12.10;99.90;;;;;;5083728;28;20535;-74
2023/10/30 01:58:22;;;;;;;3.97;1.48;;;12.10;99.90;;;;;;5086529;28;20024;-75
2023/10/30 02:00:48;;;;;;;4.72;1.70;;;12.10;99.90;;;;;;5085847;28;20027;-73
2023/10/30 02:03:14;;;;;;;2.63;1.52;;;12.00;99.90;;;;;;5079485;28;20033;-73
2023/10/30 02:05:40;;;;;;;3.85;1.58;;;12.00;99.90;;;;;;5086896;28;20020;-75
2023/10/30 02:08:07;;;;;;;3.92;1.20;;;12.00;99.90;;;;;;5079028;28;20468;-74
2023/10/30 02:10:33;;;;;;;2.85;1.45;;;11.90;99.90;;;;;;5081008;28;20024;-74
2023/10/30 02:12:59;;;;;;;4.03;1.85;;;11.90;99.90;;;;;;5081334;28;20032;-75
2023/10/30 02:15:24;;;;;;;2.50;1.60;;;11.90;99.90;;;;;;5075381;28;20036;-76
2023/10/30 02:17:50;;;;;;;2.95;1.52;;;11.80;99.90;;;;;;5084707;28;20052;-74
2023/10/30 02:20:15;;;;;;;2.97;1.60;;;11.80;99.90;;;;;;5083424;28;20134;-74
2023/10/30 02:22:41;;;;;;;4.90;1.52;;;11.80;99.90;;;;;;5079610;28;20016;-76
2023/10/30 02:25:07;;;;;;;6.10;1.90;;;11.80;99.90;;;;;;5080264;28;20395;-74
2023/10/30 02:27:33;;;;;;;4.00;1.45;;;11.80;99.90;;;;;;5076100;28;20500;-75
2023/10/30 02:29:58;;;;;;;2.80;1.63;;;11.70;99.90;;;;;;5082196;28;20036;-74
2023/10/30 02:32:24;;;;;;;3.45;1.90;;;11.70;99.90;;;;;;5081804;28;20664;-73
2023/10/30 02:34:50;;;;;;;1.80;1.30;;;11.70;99.90;;;;;;5076928;28;20035;-74
2023/10/30 02:37:15;;;;;;;3.78;1.42;;;11.60;99.90;;;;;;5082570;28;20028;-74
2023/10/30 02:39:41;;;;;;;2.47;1.23;;;11.60;99.90;;;;;;5084275;28;20024;-75
2023/10/30 02:42:08;;;;;;;2.25;1.38;;;11.60;99.90;;;;;;5077176;28;20395;-74
2023/10/30 02:44:34;;;;;;;5.60;1.73;;;11.60;99.90;;;;;;5081701;28;20383;-74
2023/10/30 02:46:59;;;;;;;3.97;1.90;;;11.50;99.90;;;;;;5083478;28;20098;-75
2023/10/30 02:49:25;;;;;;;3.75;2.10;;;11.50;99.90;;;;;;5087035;28;20382;-73
2023/10/30 02:51:51;;;;;;;5.32;2.05;;;11.50;99.90;;;;;;5084447;28;20077;-74
2023/10/30 02:54:17;;;;;;;5.05;2.38;;;11.50;99.90;;;;;;5080153;28;20016;-73
2023/10/30 02:56:42;;;;;;;4.10;2.10;;;11.40;99.90;;;;;;5086785;28;20107;-76
2023/10/30 02:59:08;;;;;;;7.97;2.55;;;11.40;99.90;;;;;;5079783;28;20039;-75
2023/10/30 03:01:34;;;;;;;4.18;2.20;;;11.40;99.90;;;;;;5085488;28;20055;-76
2023/10/30 03:04:03;;;;;;;4.70;2.40;;;11.30;99.90;;;;;;5081591;28;20458;-75
2023/10/30 03:06:28;;;;;;;4.18;2.15;;;11.40;99.90;;;;;;5076028;28;20480;-75
2023/10/30 03:08:54;;;;;;;3.28;2.10;;;11.40;99.90;;;;;;5083643;28;20077;-74
2023/10/30 03:11:20;;;;;;;4.43;2.63;;;11.30;99.90;;;;;;5080443;28;20407;-74
2023/10/30 03:13:46;;;;;;;4.55;3.15;;;11.30;99.90;;;;;;5079335;28;20032;-75
2023/10/30 03:16:11;;;;;;;5.63;3.15;;;11.30;99.90;;;;;;5083407;28;20493;-76
2023/10/30 03:18:38;;;;;;;5.43;3.13;;;11.30;99.90;;;;;;5078802;28;20024;-75
2023/10/30 03:21:04;;;;;;;5.75;3.58;;;11.30;99.90;;;;;;5085356;28;20039;-75
2023/10/30 03:23:29;;;;;;;6.65;3.95;;;11.20;99.90;;;;;;5078461;28;20031;-75
2023/10/30 03:25:55;;;;;;;7.13;3.67;;;11.20;99.90;;;;;;5079284;28;20029;-77
2023/10/30 03:28:20;;;;;;;6.10;3.90;;;11.30;99.90;;;;;;5085926;28;20406;-74
2023/10/30 03:30:46;;;;;;;7.53;4.32;;;11.30;99.90;;;;;;5083778;28;20111;-75
2023/10/30 03:33:12;;;;;;;8.30;4.45;;;11.30;99.90;;;;;;5082985;28;20040;-75
2023/10/30 03:35:39;;;;;;;8.13;4.57;;;11.30;99.90;;;;;;5083602;28;20040;-76
2023/10/30 03:38:04;;;;;;;7.72;4.63;;;11.30;99.90;;;;;;5080808;28;20024;-75
2023/10/30 03:40:31;;;;;;;7.03;4.20;;;11.30;99.90;;;;;;5083754;28;20479;-75
2023/10/30 03:42:56;;;;;;;8.23;5.45;;;11.30;99.90;;;;;;5089946;28;20045;-75
2023/10/30 03:45:22;;;;;;;7.18;4.63;;;11.30;99.90;;;;;;5082904;28;20376;-74
2023/10/30 03:47:48;;;;;;;8.07;4.50;;;11.30;99.90;;;;;;5078725;28;20102;-74
2023/10/30 03:50:14;;;;;;;9.05;5.30;;;11.20;99.90;;;;;;5079952;28;20020;-75
2023/10/30 03:52:40;;;;;;;9.85;5.40;;;11.20;99.90;;;;;;5080752;28;20115;-75
2023/10/30 03:55:06;;;;;;;12.18;5.97;;;11.20;99.90;;;;;;5080649;28;20051;-75
2023/10/30 03:57:32;;;;;;;7.00;4.75;;;11.20;99.90;;;;;;5079955;28;20043;-75
2023/10/30 03:59:58;;;;;;;6.68;4.57;;;11.20;99.90;;;;;;5089384;28;20359;-74
2023/10/30 04:02:23;;;;;;;7.03;4.25;;;11.10;99.90;;;;;;5084949;28;20024;-75
2023/10/30 04:04:49;;;;;;;9.13;5.00;;;11.10;99.90;;;;;;5085241;28;20028;-74
2023/10/30 04:07:15;;;;;;;8.20;5.53;;;11.10;99.90;;;;;;5086589;28;20074;-75
2023/10/30 04:09:40;;;;;;;9.57;5.55;;;11.00;99.90;;;;;;5084272;28;20486;-74
2023/10/30 04:12:06;;;;;;;8.85;5.13;;;11.00;99.90;;;;;;5082982;28;20039;-75
2023/10/30 04:14:32;;;;;;;10.85;6.28;;;11.00;99.90;;;;;;5085110;28;20032;-74
2023/10/30 04:16:58;;;;;;;10.43;6.10;;;11.00;99.90;;;;;;5083130;28;20074;-74
2023/10/30 04:19:24;;;;;;;12.23;6.22;;;11.00;99.90;;;;;;5092306;28;20016;-74
2023/10/30 04:21:50;;;;;;;9.88;5.40;;;10.90;99.90;;;;;;5091678;28;20068;-74
2023/10/30 04:24:15;;;;;;;9.90;6.43;;;11.00;99.90;;;;;;5088892;28;20024;-74
2023/10/30 04:26:41;;;;;;;8.75;5.93;;;11.00;99.90;;;;;;5085171;28;20031;-75
2023/10/30 04:29:07;;;;;;;10.90;6.07;;;10.90;99.90;;;;;;5084429;28;20538;-74
2023/10/30 04:31:32;;;;;;;9.95;6.20;;;11.00;99.90;;;;;;5089055;28;20372;-74
2023/10/30 04:33:58;;;;;;;10.38;5.68;;;11.00;99.90;;;;;;5085464;28;20028;-74
2023/10/30 04:36:24;;;;;;;10.45;5.95;;;11.00;99.90;;;;;;5087498;28;20424;-75
2023/10/30 04:38:52;;;;;;;9.95;6.65;;;11.00;99.90;;;;;;5087634;28;20438;-75
2023/10/30 04:41:18;;;;;;;11.15;6.15;;;11.00;99.90;;;;;;5085414;28;20020;-74
2023/10/30 04:43:44;;;;;;;9.88;5.70;;;11.00;99.90;;;;;;5084360;28;20157;-75
2023/10/30 04:46:09;;;;;;;8.82;5.40;;;11.00;99.90;;;;;;5083280;28;20149;-74
2023/10/30 04:48:35;;;;;;;9.00;5.68;;;11.00;99.90;;;;;;5082972;28;20031;-74
2023/10/30 04:51:01;;;;;;;9.43;5.70;;;11.00;99.90;;;;;;5088587;28;20024;-75
2023/10/30 04:53:29;;;;;;;7.53;4.93;;;11.00;99.90;;;;;;5087201;28;20047;-75
2023/10/30 04:55:56;;;;;;;10.45;6.07;;;11.00;99.90;;;;;;5087094;28;20606;-74
2023/10/30 04:58:22;;;;;;;8.55;5.75;;;11.00;99.90;;;;;;5081349;28;20031;-75
2023/10/30 05:00:48;;;;;;;9.00;5.75;;;11.00;99.90;;;;;;5083714;28;20640;-74
2023/10/30 05:03:14;;;;;;;9.43;5.80;;;11.00;99.90;;;;;;5084403;28;20023;-74
2023/10/30 05:05:39;;;;;;;8.90;5.63;;;11.00;99.90;;;;;;5081919;28;20028;-74
2023/10/30 05:08:05;;;;;;;8.85;5.32;;;11.00;99.90;;;;;;5084412;28;20029;-75
2023/10/30 05:10:31;;;;;;;9.93;5.85;;;11.00;99.90;;;;;;5085430;28;20086;-74
2023/10/30 05:12:57;;;;;;;10.48;6.13;;;11.00;99.90;;;;;;5093885;28;20040;-75
2023/10/30 05:15:23;;;;;;;10.38;6.57;;;11.00;99.90;;;;;;5095446;28;20394;-76
2023/10/30 05:17:49;;;;;;;11.43;6.45;;;11.00;99.90;;;;;;5085474;28;20051;-75
2023/10/30 05:20:15;;;;;;;10.70;7.13;;;11.00;99.90;;;;;;5084629;28;20633;-75
2023/10/30 05:22:43;;;;;;;11.77;6.38;;;11.00;99.90;;;;;;5097728;27;20100;-74
2023/10/30 05:25:08;;;;;;;11.57;6.65;;;10.90;99.90;;;;;;5090802;28;20034;-74
2023/10/30 05:27:34;;;;;;;10.93;6.57;;;10.90;99.90;;;;;;5083418;28;20024;-75
2023/10/30 05:30:00;;;;;;;9.55;6.50;;;10.90;99.90;;;;;;5087185;28;20031;-74
2023/10/30 05:32:26;;;;;;;10.35;6.55;;;10.90;99.90;;;;;;5082582;28;20109;-74
2023/10/30 05:34:52;;;;;;;10.85;6.32;;;10.90;99.90;;;;;;5082709;28;20142;-74
2023/10/30 05:37:19;;;;;;;10.65;7.28;;;10.80;99.90;;;;;;5082185;28;20478;-73
2023/10/30 05:39:45;;;;;;;11.52;6.72;;;10.80;99.90;;;;;;5083015;28;20078;-74
2023/10/30 05:42:10;;;;;;;11.50;6.30;;;10.80;99.90;;;;;;5077210;28;20518;-73
2023/10/30 05:44:36;;;;;;;9.98;6.68;;;10.80;99.90;;;;;;5084120;28;20016;-75
2023/10/30 05:47:02;;;;;;;10.95;6.22;;;10.80;99.90;;;;;;5083016;28;20027;-74
2023/10/30 05:49:28;;;;;;;10.82;7.18;;;10.80;99.90;;;;;;5077426;28;20565;-73
2023/10/30 05:51:54;;;;;;;11.40;7.40;;;10.80;99.90;;;;;;5081504;28;20390;-73
2023/10/30 05:54:21;;;;;;;13.43;7.32;;;10.80;99.90;;;;;;5083784;28;20032;-75
2023/10/30 05:56:46;;;;;;;15.43;8.38;;;10.70;99.90;;;;;;5080181;28;20028;-73
2023/10/30 05:59:12;;;;;;;10.68;7.20;;;10.80;99.90;;;;;;5077641;28;20703;-73
2023/10/30 06:01:38;;;;;;;10.95;6.90;;;10.80;99.90;;;;;;5079006;28;20024;-73
2023/10/30 06:04:04;;;;;;;14.38;7.25;;;10.80;99.90;;;;;;5084220;28;20111;-74
2023/10/30 06:06:29;;;;;;;10.20;6.95;;;10.70;99.90;;;;;;5079537;28;20607;-73
2023/10/30 06:08:55;;;;;;;9.55;7.03;;;10.70;99.90;;;;;;5083987;28;20032;-75
2023/10/30 06:11:21;;;;;;;11.48;7.38;;;10.70;99.90;;;;;;5081560;28;20044;-74
2023/10/30 06:13:46;;;;;;;10.82;7.07;;;10.70;99.90;;;;;;5083830;28;20120;-74
2023/10/30 06:16:16;;;;;;;13.15;7.82;;;10.70;99.90;;;;;;5079683;28;20430;-74
2023/10/30 06:18:41;;;;;;;13.57;8.00;;;10.70;99.90;;;;;;5080994;28;20020;-74
2023/10/30 06:21:10;;;;;;;13.70;8.38;;;10.70;99.90;;;;;;5075985;28;20024;-71
2023/10/30 06:23:36;;;;;;;15.35;8.68;;;10.70;99.90;;;;;;5079527;28;20043;-70
2023/10/30 06:26:08;;;;;;;14.00;9.38;;;10.70;99.90;;;;;;5083669;28;20028;-70
2023/10/30 06:28:34;;;;;;;14.90;8.77;;;10.70;99.90;;;;;;5074717;28;20032;-70
2023/10/30 06:30:59;;;;;;;16.77;8.88;;;10.80;99.90;;;;;;5082721;28;20031;-70
2023/10/30 06:33:25;;;;;;;12.98;8.75;;;10.90;99.90;;;;;;5079449;28;20380;-70
2023/10/30 06:36:00;;;;;;;12.05;8.10;;;10.90;99.90;;;;;;5082565;28;20024;-71
2023/10/30 06:38:25;;;;;;;18.02;8.73;;;11.00;99.90;;;;;;5077012;28;20475;-75
2023/10/30 06:40:51;;;;;;;10.88;7.97;;;11.00;99.90;;;;;;5077517;28;20039;-73
2023/10/30 06:43:17;;;;;;;13.18;8.45;;;11.00;99.90;;;;;;5085936;28;20024;-74
2023/10/30 06:45:42;;;;;;;10.75;7.43;;;11.00;99.90;;;;;;5076773;28;20051;-73
2023/10/30 06:48:08;;;;;;;9.70;6.70;;;11.10;99.90;;;;;;5080320;28;20095;-73
2023/10/30 06:50:33;;;;;;;12.30;7.50;;;11.10;99.90;;;;;;5085273;28;20032;-74
2023/10/30 06:52:59;;;;;;;11.93;6.75;;;11.20;99.90;;;;;;5081362;28;20131;-74
2023/10/30 06:55:25;;;;;;;9.00;6.45;;;11.20;99.90;;;;;;5075037;28;20028;-75
2023/10/30 06:57:50;;;;;;;9.88;7.28;;;11.20;99.90;;;;;;5075505;28;20044;-73
2023/10/30 07:00:18;;;;;;;10.90;6.63;;;11.20;99.90;;;;;;5086335;28;20016;-73
2023/10/30 07:02:44;;;;;;;9.55;6.88;;;11.30;99.90;;;;;;5076556;28;20478;-74
2023/10/30 07:05:10;;;;;;;12.93;7.68;;;11.30;99.90;;;;;;5077067;28;20035;-74
2023/10/30 07:07:36;;;;;;;13.30;7.40;;;11.40;99.90;;;;;;5080863;28;20023;-75
2023/10/30 07:10:02;;;;;;;9.45;6.30;;;11.40;99.90;;;;;;5070152;28;20522;-74
2023/10/30 07:12:28;;;;;;;11.23;5.10;;;11.50;99.90;;;;;;5075904;28;20104;-74
2023/10/30 07:14:54;;;;;;;6.70;4.88;;;11.50;99.90;;;;;;5077264;28;20036;-75
2023/10/30 07:17:19;;;;;;;5.68;4.32;;;11.60;99.90;;;;;;5082730;28;20036;-73
2023/10/30 07:19:46;;;;;;;8.98;4.28;;;11.60;99.90;;;;;;5077380;28;20106;-73
2023/10/30 07:22:12;;;;;;;7.40;3.83;;;11.70;99.90;;;;;;5075673;28;20017;-73
2023/10/30 07:24:38;;;;;;;5.57;3.72;;;11.80;99.90;;;;;;5074897;28;20051;-73
2023/10/30 07:27:03;;;;;;;5.43;3.10;;;11.80;99.90;;;;;;5078561;28;20025;-73
2023/10/30 07:29:29;;;;;;;6.50;3.90;;;11.90;99.90;;;;;;5077577;28;20031;-73
2023/10/30 07:31:55;;;;;;;5.10;2.75;;;11.90;99.90;;;;;;5077236;28;20502;-73
2023/10/30 07:34:21;;;;;;;5.40;3.13;;;12.00;99.90;;;;;;5072791;28;20121;-73
2023/10/30 07:36:47;;;;;;;4.60;2.72;;;12.00;99.90;;;;;;5076066;28;20112;-73
2023/10/30 07:39:13;;;;;;;4.38;2.65;;;12.10;99.90;;;;;;5073141;28;20108;-74
2023/10/30 07:41:39;;;;;;;5.00;2.70;;;12.10;99.90;;;;;;5077614;28;20031;-73
2023/10/30 07:44:07;;;;;;;5.65;2.60;;;12.10;99.90;;;;;;5082836;28;20028;-74
2023/10/30 07:46:33;;;;;;;4.82;2.15;;;12.20;99.90;;;;;;5082336;28;20107;-75
2023/10/30 07:49:03;;;;;;;4.70;2.30;;;12.20;99.90;;;;;;5081204;28;20035;-74
2023/10/30 07:51:28;;;;;;;2.03;1.70;;;12.30;99.90;;;;;;5081103;28;20038;-74
2023/10/30 07:53:54;;;;;;;4.75;2.00;;;12.40;99.90;;;;;;5079918;28;20104;-73
2023/10/30 07:56:19;;;;;;;3.92;1.85;;;12.50;99.90;;;;;;5083770;28;20031;-73
2023/10/30 07:58:45;;;;;;;3.83;1.58;;;12.50;99.90;;;;;;5080461;28;20509;-74
2023/10/30 08:01:11;;;;;;;2.72;1.60;;;12.60;99.90;;;;;;5080522;28;20072;-76
2023/10/30 08:03:36;;;;;;;4.15;2.20;;;12.70;99.90;;;;;;5082912;28;20020;-73
2023/10/30 08:06:02;;;;;;;3.65;1.77;;;12.80;99.90;;;;;;5090217;28;20020;-73
2023/10/30 08:08:28;;;;;;;4.47;1.85;;;12.80;99.90;;;;;;5079098;28;20058;-74
2023/10/30 08:10:54;;;;;;;1.92;1.27;;;12.90;99.90;;;;;;5084723;28;20161;-73
2023/10/30 08:13:20;;;;;;;2.75;1.65;;;12.90;99.90;;;;;;5078462;28;20031;-73
2023/10/30 08:15:46;;;;;;;2.10;1.48;;;13.10;99.90;;;;;;5078467;28;20028;-73
2023/10/30 08:18:12;;;;;;;2.40;1.40;;;13.10;99.90;;;;;;5078238;28;20024;-73
2023/10/30 08:20:37;;;;;;;2.10;1.35;;;13.20;99.90;;;;;;5076845;28;20060;-73
2023/10/30 08:23:03;;;;;;;3.85;1.23;;;13.20;99.90;;;;;;5084899;28;20052;-74
2023/10/30 08:25:29;;;;;;;2.13;1.08;;;13.30;99.90;;;;;;5079431;28;20106;-73
2023/10/30 08:27:57;;;;;;;2.42;1.10;;;13.30;99.90;;;;;;5080693;28;20475;-73
2023/10/30 08:30:24;;;;;;;2.88;1.30;;;13.40;99.90;;;;;;5086153;28;20021;-75
2023/10/30 08:32:50;;;;;;;2.35;1.13;;;13.40;99.90;;;;;;5080652;28;20027;-74
2023/10/30 08:35:15;;;;;;;5.00;1.38;;;13.40;99.90;;;;;;5086825;28;20678;-74
2023/10/30 08:37:41;;;;;;;2.35;1.27;;;13.50;99.90;;;;;;5079804;28;20475;-73
2023/10/30 08:40:08;;;;;;;2.72;1.38;;;13.50;99.90;;;;;;5083016;28;20801;-74
2023/10/30 08:42:34;;;;;;;3.33;1.50;;;13.60;99.90;;;;;;5081928;28;20032;-74
2023/10/30 08:44:59;;;;;;;3.03;1.30;;;13.60;99.90;;;;;;5085860;28;20029;-74
2023/10/30 08:47:25;;;;;;;3.67;1.15;;;13.70;99.90;;;;;;5080268;28;20032;-74
2023/10/30 08:49:50;;;;;;;1.95;1.20;;;13.70;99.90;;;;;;5077280;28;20032;-74
2023/10/30 08:52:16;;;;;;;2.30;1.10;;;13.80;99.90;;;;;;5085849;28;20044;-74
2023/10/30 08:54:44;;;;;;;3.10;1.75;;;13.80;99.90;;;;;;5077728;28;20036;-74
2023/10/30 08:57:10;;;;;;;2.65;1.70;;;13.80;99.90;;;;;;5080957;28;20475;-73
2023/10/30 08:59:38;;;;;;;3.25;1.08;;;13.80;99.90;;;;;;5081134;28;20020;-73
2023/10/30 09:02:07;;;;;;;2.95;1.00;;;13.80;99.90;;;;;;5079903;28;20549;-70
2023/10/30 09:04:33;;;;;;;4.88;1.30;;;13.80;99.90;;;;;;5074736;28;20364;-70
2023/10/30 09:06:59;;;;;;;5.93;1.65;;;13.90;99.90;;;;;;5074751;28;20013;-70
2023/10/30 09:09:25;;;;;;;3.10;1.00;;;13.90;99.90;;;;;;5074705;28;20036;-70
2023/10/30 09:11:50;;;;;;;2.83;1.02;;;14.00;99.90;;;;;;5074902;28;20020;-71
2023/10/30 09:14:16;;;;;;;2.80;1.10;;;14.00;99.90;;;;;;5073944;28;20074;-70
2023/10/30 09:16:42;;;;;;;6.85;2.75;;;14.00;99.90;;;;;;5074058;28;20032;-70
2023/10/30 09:19:07;;;;;;;4.13;1.17;;;14.10;99.90;;;;;;5074373;28;20036;-71
2023/10/30 09:21:33;;;;;;;2.55;0.98;;;14.10;99.90;;;;;;5074279;28;20070;-70
2023/10/30 09:23:58;;;;;;;3.83;1.00;;;14.10;99.90;;;;;;5073940;28;20017;-70
2023/10/30 09:26:24;;;;;;;1.20;0.70;;;14.10;99.90;;;;;;5074014;28;20024;-72
2023/10/30 09:28:52;;;;;;;1.30;0.82;;;14.20;99.90;;;;;;5073834;28;20029;-71
2023/10/30 09:31:18;;;;;;;2.15;0.80;;;14.20;99.90;;;;;;5073957;28;20016;-71
2023/10/30 09:33:43;;;;;;;3.75;1.05;;;14.20;99.90;;;;;;5074480;28;20089;-71
2023/10/30 09:36:09;;;;;;;2.40;0.70;;;14.20;99.90;;;;;;5074662;28;20027;-71
2023/10/30 09:38:34;;;;;;;1.67;0.93;;;14.20;99.90;;;;;;5074700;28;20070;-71
2023/10/30 09:41:07;;;;;;;3.58;1.05;;;14.30;99.90;;;;;;5074220;28;20099;-70
2023/10/30 09:43:37;;;;;;;3.20;0.80;;;14.30;99.90;;;;;;5074277;28;20471;-71
2023/10/30 09:46:06;;;;;;;3.45;1.33;;;14.30;99.90;;;;;;5074240;28;20024;-70
2023/10/30 09:48:32;;;;;;;2.67;0.85;;;14.40;99.90;;;;;;5074610;28;20039;-71
2023/10/30 09:51:00;;;;;;;2.97;1.00;;;14.40;99.90;;;;;;5073341;28;20055;-71
2023/10/30 09:53:27;;;;;;;2.08;1.05;;;14.40;99.90;;;;;;5074168;28;20427;-71
2023/10/30 09:55:54;;;;;;;2.67;1.00;;;14.40;99.90;;;;;;5073493;28;20088;-70
2023/10/30 09:58:23;;;;;;;1.50;0.82;;;14.50;99.90;;;;;;5072240;28;20097;-72
2023/10/30 10:00:49;;;;;;;1.90;1.00;;;14.60;99.90;;;;;;5072365;28;20028;-71
2023/10/30 10:03:15;;;;;;;3.00;0.93;;;14.60;99.90;;;;;;5072506;28;20532;-71
2023/10/30 10:05:41;;;;;;;3.13;0.77;;;14.60;99.90;;;;;;5072967;28;20044;-71
2023/10/30 10:08:08;;;;;;;6.18;1.55;;;14.70;99.90;;;;;;5073239;28;20484;-70
2023/10/30 10:10:59;;;;;;;1.00;0.70;;;14.70;99.90;;;;;;5072695;28;20032;-71
2023/10/30 10:13:26;;;;;;;1.88;0.88;;;14.80;99.90;;;;;;5073513;28;20085;-70
2023/10/30 10:15:52;;;;;;;1.13;0.70;;;14.80;99.90;;;;;;5073949;28;20082;-70
2023/10/30 10:18:29;;;;;;;2.30;0.90;;;14.80;99.90;;;;;;5072562;28;20029;-71
2023/10/30 10:21:03;;;;;;;4.10;1.05;;;14.80;99.90;;;;;;5073738;28;20107;-70
2023/10/30 10:23:33;;;;;;;3.20;1.00;;;14.90;99.90;;;;;;5072462;28;20104;-71
2023/10/30 10:26:04;;;;;;;2.15;0.60;;;14.90;99.90;;;;;;5072009;28;20025;-70
2023/10/30 10:28:31;;;;;;;2.53;1.23;;;14.90;99.90;;;;;;5071880;28;20162;-70
2023/10/30 10:30:56;;;;;;;3.85;1.13;;;15.00;99.90;;;;;;5071744;28;20039;-69
2023/10/30 10:33:27;;;;;;;3.28;0.85;;;15.00;99.90;;;;;;5072045;28;20028;-70
2023/10/30 10:35:54;;;;;;;2.58;0.82;;;15.00;99.90;;;;;;5072228;28;20032;-71
2023/10/30 10:38:21;;;;;;;1.80;0.73;;;15.10;99.90;;;;;;5069989;28;20029;-69
2023/10/30 10:40:47;;;;;;;1.92;0.90;;;15.10;99.90;;;;;;5071491;28;20027;-70
2023/10/30 10:43:18;;;;;;;1.83;0.90;;;15.10;99.90;;;;;;5070304;28;20020;-70
2023/10/30 10:45:50;;;;;;;1.38;0.70;;;15.10;99.90;;;;;;5071714;28;20498;-71
2023/10/30 10:48:16;;;;;;;2.20;1.15;;;15.10;99.90;;;;;;5071663;28;20036;-70
2023/10/30 10:50:42;;;;;;;1.30;0.80;;;15.10;99.90;;;;;;5071879;28;20035;-70
2023/10/30 10:53:10;;;;;;;2.10;0.73;;;15.10;99.90;;;;;;5071568;28;20035;-70
2023/10/30 10:55:40;;;;;;;2.55;0.93;;;15.10;99.90;;;;;;5071635;28;20534;-70
2023/10/30 10:58:09;;;;;;;1.30;1.10;;;15.10;99.90;;;;;;5071332;28;20033;-70
2023/10/30 11:00:40;;;;;;;8.60;3.33;;;15.10;99.90;;;;;;5071705;28;20039;-71
2023/10/30 11:03:07;;;;;;;3.85;1.40;;;15.20;99.90;;;;;;5071809;28;20024;-72
2023/10/30 11:05:36;;;;;;;4.30;0.93;;;15.10;99.90;;;;;;5071541;28;20021;-71
2023/10/30 11:08:24;;;;;;;2.97;0.77;;;15.20;99.90;;;;;;5071322;28;20028;-72
2023/10/30 11:11:10;;;;;;;3.53;1.20;;;15.20;99.90;;;;;;5073140;28;20575;-73
2023/10/30 11:13:46;;;;;;;2.95;1.15;;;15.20;99.90;;;;;;5071292;28;20033;-72
2023/10/30 11:16:24;;;;;;;3.28;0.93;;;15.30;99.90;;;;;;5075038;28;20040;-73
2023/10/30 11:18:59;;;;;;;2.80;1.15;;;15.20;99.90;;;;;;5075430;28;20479;-73
2023/10/30 11:21:28;;;;;;;3.03;1.50;;;15.20;99.90;;;;;;5075334;28;20047;-72
2023/10/30 11:23:59;;;;;;;3.28;1.60;;;15.30;99.90;;;;;;5075463;28;20127;-73
2023/10/30 11:26:36;;;;;;;2.30;1.00;;;15.30;99.90;;;;;;5075009;28;20074;-73
2023/10/30 11:29:10;;;;;;;2.58;0.82;;;15.30;99.90;;;;;;5075386;28;20029;-73
2023/10/30 11:32:02;;;;;;;1.77;1.20;;;15.30;99.90;;;;;;5075156;28;20485;-73
2023/10/30 11:34:28;;;;;;;2.95;1.15;;;15.30;99.90;;;;;;5075053;28;20017;-73
2023/10/30 11:37:08;;;;;;;3.13;1.50;;;15.30;99.90;;;;;;5073845;28;20020;-73
2023/10/30 11:39:36;;;;;;;4.60;1.90;;;15.30;99.90;;;;;;5075054;28;20099;-73
2023/10/30 11:42:04;;;;;;;2.97;1.20;;;15.40;99.90;;;;;;5074747;28;20067;-73
2023/10/30 11:44:31;;;;;;;2.95;0.85;;;15.40;99.90;;;;;;5074931;28;20024;-73
2023/10/30 11:46:58;;;;;;;4.55;0.90;;;15.50;99.90;;;;;;5075063;28;20023;-73
2023/10/30 11:49:30;;;;;;;1.70;0.73;;;15.50;99.90;;;;;;5074932;28;20020;-72
2023/10/30 11:51:56;;;;;;;1.83;0.93;;;15.50;99.90;;;;;;5074968;28;20506;-73
2023/10/30 11:54:32;;;;;;;1.60;0.68;;;15.60;99.90;;;;;;5075057;28;20028;-73
2023/10/30 11:57:00;;;;;;;3.30;1.15;;;15.70;99.90;;;;;;5074762;28;20016;-72
2023/10/30 11:59:27;;;;;;;3.75;1.02;;;15.70;99.90;;;;;;5074475;28;20028;-73
2023/10/30 12:01:54;;;;;;;1.98;1.23;;;15.80;99.90;;;;;;5074379;28;20039;-72
2023/10/30 12:04:21;;;;;;;2.70;1.35;;;15.80;99.90;;;;;;5074436;28;20387;-72
2023/10/30 12:06:48;;;;;;;3.00;1.30;;;15.80;99.90;;;;;;5074593;28;20475;-73
2023/10/30 12:09:14;;;;;;;5.82;1.73;;;15.80;99.90;;;;;;5074521;28;20021;-73
2023/10/30 12:11:40;;;;;;;3.53;1.00;;;15.90;99.90;;;;;;5074435;28;20025;-73
2023/10/30 12:14:06;;;;;;;1.83;1.00;;;15.80;99.90;;;;;;5074483;28;20039;-73
2023/10/30 12:16:34;;;;;;;3.08;1.25;;;15.90;99.90;;;;;;5074643;28;20413;-72
2023/10/30 12:19:01;;;;;;;6.88;1.60;;;15.90;99.90;;;;;;5074182;28;20360;-73
2023/10/30 12:21:28;;;;;;;2.85;1.30;;;15.80;99.90;;;;;;5074275;28;20059;-73
2023/10/30 12:23:57;;;;;;;4.32;1.25;;;15.90;99.90;;;;;;5074173;28;20016;-73
2023/10/30 12:26:23;;;;;;;4.32;1.65;;;15.90;99.90;;;;;;5073628;28;20009;-73
2023/10/30 12:28:49;;;;;;;2.53;1.40;;;15.90;99.90;;;;;;5072736;28;20036;-72
2023/10/30 12:31:19;;;;;;;2.95;1.45;;;15.90;99.90;;;;;;5074150;28;20103;-73
2023/10/30 12:33:45;;;;;;;2.97;1.30;;;15.90;99.90;;;;;;5074046;28;20641;-72
2023/10/30 12:36:11;;;;;;;4.53;1.35;;;15.90;99.90;;;;;;5074007;28;20079;-73
2023/10/30 12:38:36;;;;;;;3.38;1.20;;;16.00;99.90;;;;;;5073982;28;20483;-73
2023/10/30 12:41:06;;;;;;;6.63;1.33;;;16.00;99.90;;;;;;5073949;28;20020;-73
2023/10/30 12:43:41;;;;;;;3.20;1.15;;;16.00;99.90;;;;;;5073881;28;20023;-73